createdAt,value
2019-04-22T00:00:32.816Z,15.40
2019-04-22T00:03:03.055Z,15.70
2019-04-22T00:05:51.233Z,15.60
2019-04-22T00:08:25.035Z,15.50
2019-04-22T00:10:54.025Z,15.60
2019-04-22T00:13:26.202Z,15.50
2019-04-22T00:15:47.842Z,15.40
2019-04-22T00:18:30.485Z,15.30
2019-04-22T00:20:58.026Z,15.40
2019-04-22T00:23:25.663Z,15.30
2019-04-22T00:26:01.665Z,15.30
2019-04-22T00:28:41.176Z,15.30
2019-04-22T00:31:09.967Z,15.30
2019-04-22T00:33:31.947Z,15.20
2019-04-22T00:36:08.728Z,15.30
2019-04-22T00:38:38.710Z,15.30
2019-04-22T00:41:08.217Z,15.40
2019-04-22T00:43:45.803Z,15.20
2019-04-22T00:46:15.638Z,15.10
2019-04-22T00:48:44.546Z,15.00
2019-04-22T00:54:02.052Z,14.90
2019-04-22T00:56:28.227Z,15.00
2019-04-22T00:58:59.201Z,14.90
2019-04-22T01:01:32.193Z,14.90
2019-04-22T01:04:04.335Z,14.90
2019-04-22T01:06:44.538Z,14.80
2019-04-22T01:11:33.650Z,14.80
2019-04-22T01:14:13.081Z,14.90
2019-04-22T01:16:42.693Z,14.70
2019-04-22T01:19:16.132Z,14.60
2019-04-22T01:24:17.535Z,15.00
2019-04-22T01:26:43.580Z,15.00
2019-04-22T01:29:10.996Z,14.80
2019-04-22T01:31:34.067Z,14.90
2019-04-22T01:34:10.315Z,15.20
2019-04-22T01:36:47.426Z,15.00
2019-04-22T01:39:25.076Z,15.00
2019-04-22T01:42:03.894Z,14.80
2019-04-22T01:44:31.368Z,14.80
2019-04-22T01:47:00.244Z,14.70
2019-04-22T01:49:27.313Z,14.70
2019-04-22T01:51:58.673Z,14.70
2019-04-22T01:54:29.745Z,14.70
2019-04-22T01:59:20.114Z,14.70
2019-04-22T02:01:55.162Z,14.80
2019-04-22T02:04:35.074Z,14.70
2019-04-22T02:06:59.180Z,14.40
2019-04-22T02:09:31.231Z,14.40
2019-04-22T02:12:11.177Z,14.10
2019-04-22T02:14:39.915Z,14.00
2019-04-22T02:19:48.146Z,14.00
2019-04-22T02:22:07.054Z,14.20
2019-04-22T02:24:47.069Z,14.20
2019-04-22T02:27:17.707Z,14.00
2019-04-22T02:32:28.059Z,13.90
2019-04-22T02:35:01.258Z,13.70
2019-04-22T02:37:18.758Z,13.70
2019-04-22T02:39:57.297Z,13.70
2019-04-22T02:42:16.436Z,13.60
2019-04-22T02:45:20.878Z,13.60
2019-04-22T02:47:42.275Z,13.60
2019-04-22T02:50:09.187Z,13.70
2019-04-22T02:53:01.313Z,13.60
2019-04-22T02:55:32.991Z,13.60
2019-04-22T02:57:47.087Z,13.70
2019-04-22T03:00:21.560Z,13.70
2019-04-22T03:03:03.722Z,13.70
2019-04-22T03:05:21.980Z,13.60
2019-04-22T03:07:55.960Z,13.60
2019-04-22T03:10:20.557Z,13.50
2019-04-22T03:12:41.812Z,13.50
2019-04-22T03:15:12.127Z,13.40
2019-04-22T03:17:47.431Z,13.40
2019-04-22T03:22:47.643Z,13.30
2019-04-22T03:27:42.737Z,13.40
2019-04-22T03:33:12.489Z,13.40
2019-04-22T03:47:53.578Z,13.20
2019-04-22T03:50:22.647Z,13.20
2019-04-22T03:52:47.161Z,13.10
2019-04-22T03:55:15.017Z,13.10
2019-04-22T04:00:30.830Z,13.00
2019-04-22T04:10:30.169Z,13.10
2019-04-22T04:15:21.157Z,13.10
2019-04-22T04:28:11.300Z,13.00
2019-04-22T04:30:26.482Z,13.00
2019-04-22T04:32:52.517Z,13.00
2019-04-22T04:40:29.214Z,13.00
2019-04-22T04:42:54.403Z,12.90
2019-04-22T04:53:02.614Z,12.80
2019-04-22T05:05:25.193Z,12.90
2019-04-22T05:15:19.271Z,12.80
2019-04-22T05:20:29.366Z,12.70
2019-04-22T05:30:23.422Z,12.90
2019-04-22T05:32:42.976Z,12.90
2019-04-22T05:35:20.387Z,13.00
2019-04-22T05:37:45.844Z,13.10
2019-04-22T05:40:20.149Z,13.10
2019-04-22T05:42:46.203Z,13.20
2019-04-22T05:45:17.851Z,13.10
2019-04-22T05:47:46.309Z,13.10
2019-04-22T05:50:13.010Z,13.10
2019-04-22T05:52:54.381Z,13.20
2019-04-22T05:55:22.437Z,13.20
2019-04-22T05:57:51.197Z,13.30
2019-04-22T06:00:36.928Z,13.40
2019-04-22T06:05:24.948Z,13.50
2019-04-22T06:07:53.370Z,13.60
2019-04-22T06:10:41.131Z,13.60
2019-04-22T06:12:48.028Z,13.60
2019-04-22T06:15:24.215Z,13.60
2019-04-22T06:18:05.611Z,13.70
2019-04-22T06:20:25.542Z,13.90
2019-04-22T06:22:58.471Z,13.80
2019-04-22T06:25:27.779Z,13.80
2019-04-22T06:27:57.509Z,13.90
2019-04-22T06:30:29.103Z,13.90
2019-04-22T06:32:53.801Z,14.00
2019-04-22T06:35:33.298Z,14.10
2019-04-22T06:38:18.901Z,14.00
2019-04-22T06:40:27.510Z,14.00
2019-04-22T06:42:58.043Z,14.10
2019-04-22T06:45:24.578Z,14.20
2019-04-22T06:48:02.335Z,14.20
2019-04-22T06:50:33.922Z,14.40
2019-04-22T06:52:57.217Z,14.50
2019-04-22T06:55:33.007Z,14.50
2019-04-22T06:57:59.829Z,14.60
2019-04-22T07:03:24.109Z,14.80
2019-04-22T07:05:28.517Z,14.90
2019-04-22T07:08:04.145Z,15.00
2019-04-22T07:10:40.463Z,15.10
2019-04-22T07:12:53.888Z,15.10
2019-04-22T07:15:46.364Z,15.30
2019-04-22T07:18:04.110Z,15.50
2019-04-22T07:20:33.347Z,15.60
2019-04-22T07:23:06.700Z,15.70
2019-04-22T07:28:05.177Z,16.20
2019-04-22T07:30:35.048Z,16.30
2019-04-22T07:35:36.539Z,16.60
2019-04-22T07:38:07.858Z,16.60
2019-04-22T07:40:40.362Z,16.50
2019-04-22T07:43:04.302Z,16.60
2019-04-22T07:45:38.262Z,16.70
2019-04-22T07:48:18.854Z,16.80
2019-04-22T07:50:50.658Z,17.00
2019-04-22T07:53:08.487Z,17.20
2019-04-22T07:55:43.398Z,17.30
2019-04-22T07:58:15.540Z,17.50
2019-04-22T08:03:11.751Z,17.70
2019-04-22T08:05:45.887Z,17.60
2019-04-22T08:08:13.190Z,17.60
2019-04-22T08:10:43.893Z,17.80
2019-04-22T08:13:04.904Z,17.80
2019-04-22T08:15:42.031Z,18.00
2019-04-22T08:23:09.155Z,17.90
2019-04-22T08:25:38.843Z,18.00
2019-04-22T08:28:10.655Z,18.10
2019-04-22T08:30:41.436Z,18.00
2019-04-22T08:33:16.002Z,18.20
2019-04-22T08:38:14.929Z,18.40
2019-04-22T08:40:47.207Z,18.50
2019-04-22T08:45:46.190Z,18.50
2019-04-22T08:48:11.093Z,18.50
2019-04-22T08:50:44.668Z,18.50
2019-04-22T08:53:19.666Z,18.80
2019-04-22T08:55:51.521Z,19.00
2019-04-22T08:58:21.410Z,19.20
2019-04-22T09:00:50.960Z,19.20
2019-04-22T09:03:11.059Z,19.50
2019-04-22T09:08:21.250Z,19.90
2019-04-22T09:10:46.837Z,20.00
2019-04-22T09:13:31.844Z,19.90
2019-04-22T09:15:45.103Z,20.10
2019-04-22T09:18:14.224Z,20.20
2019-04-22T09:20:53.449Z,20.30
2019-04-22T09:23:21.470Z,20.40
2019-04-22T09:25:46.773Z,20.40
2019-04-22T09:28:17.518Z,20.40
2019-04-22T09:30:47.030Z,20.40
2019-04-22T09:38:25.764Z,21.00
2019-04-22T09:40:48.461Z,20.80
2019-04-22T09:43:16.981Z,20.90
2019-04-22T09:45:43.374Z,21.00
2019-04-22T09:48:16.319Z,21.20
2019-04-22T09:53:14.811Z,21.50
2019-04-22T09:55:43.189Z,21.70
2019-04-22T09:58:16.578Z,21.80
2019-04-22T10:01:03.068Z,22.00
2019-04-22T10:03:22.176Z,22.00
2019-04-22T10:05:58.260Z,22.30
2019-04-22T10:08:34.052Z,22.10
2019-04-22T10:11:00.849Z,22.30
2019-04-22T10:13:32.019Z,22.40
2019-04-22T10:15:58.930Z,22.40
2019-04-22T10:18:25.825Z,22.50
2019-04-22T10:20:54.082Z,22.90
2019-04-22T10:23:25.395Z,22.90
2019-04-22T10:25:52.614Z,23.10
2019-04-22T10:28:23.405Z,23.10
2019-04-22T10:33:14.982Z,23.10
2019-04-22T10:35:30.662Z,23.30
2019-04-22T10:37:58.503Z,23.60
2019-04-22T10:40:36.311Z,23.70
2019-04-22T10:43:05.587Z,24.00
2019-04-22T10:45:34.468Z,23.90
2019-04-22T10:48:04.065Z,24.10
2019-04-22T10:50:43.167Z,24.10
2019-04-22T10:53:13.337Z,24.10
2019-04-22T10:55:44.907Z,24.20
2019-04-22T10:58:12.883Z,24.40
2019-04-22T11:00:42.071Z,24.40
2019-04-22T11:03:11.871Z,24.60
2019-04-22T11:05:42.130Z,24.70
2019-04-22T11:08:22.581Z,24.70
2019-04-22T11:10:56.372Z,24.90
2019-04-22T11:13:10.958Z,25.10
2019-04-22T11:15:40.477Z,24.90
2019-04-22T11:18:09.489Z,25.00
2019-04-22T11:20:39.771Z,25.30
2019-04-22T11:23:08.869Z,25.30
2019-04-22T11:25:37.567Z,25.30
2019-04-22T11:28:07.401Z,26.00
2019-04-22T11:30:36.733Z,25.80
2019-04-22T11:33:06.630Z,26.00
2019-04-22T11:35:35.274Z,26.10
2019-04-22T11:38:04.583Z,26.10
2019-04-22T11:40:38.441Z,26.10
2019-04-22T11:43:04.030Z,26.00
2019-04-22T11:45:33.395Z,25.70
2019-04-22T11:48:01.651Z,25.90
2019-04-22T11:50:31.659Z,26.20
2019-04-22T11:53:00.778Z,26.30
2019-04-22T11:55:30.721Z,26.50
2019-04-22T11:58:00.934Z,26.30
2019-04-22T12:00:32.781Z,26.30
2019-04-22T12:03:01.223Z,26.40
2019-04-22T12:05:29.984Z,26.20
2019-04-22T12:07:59.286Z,26.20
2019-04-22T12:10:36.677Z,26.00
2019-04-22T12:12:57.830Z,26.30
2019-04-22T12:15:26.772Z,26.60
2019-04-22T12:17:55.336Z,26.50
2019-04-22T12:20:25.379Z,26.80
2019-04-22T12:22:53.844Z,26.90
2019-04-22T12:25:32.304Z,27.10
2019-04-22T12:27:52.949Z,26.80
2019-04-22T12:30:21.457Z,26.70
2019-04-22T12:32:50.523Z,27.30
2019-04-22T12:35:19.851Z,27.20
2019-04-22T12:37:54.106Z,27.00
2019-04-22T12:40:30.111Z,26.90
2019-04-22T12:42:49.185Z,26.70
2019-04-22T12:45:18.356Z,26.90
2019-04-22T12:47:48.233Z,27.10
2019-04-22T12:50:24.107Z,27.10
2019-04-22T12:52:53.314Z,27.10
2019-04-22T12:55:25.839Z,27.60
2019-04-22T12:57:55.391Z,27.60
2019-04-22T13:00:26.636Z,27.80
2019-04-22T13:02:55.201Z,27.70
2019-04-22T13:05:25.086Z,27.60
2019-04-22T13:07:53.807Z,27.40
2019-04-22T13:10:22.210Z,27.30
2019-04-22T13:12:50.974Z,27.20
2019-04-22T13:15:20.075Z,27.40
2019-04-22T13:18:01.087Z,27.50
2019-04-22T13:20:20.312Z,27.30
2019-04-22T13:22:48.677Z,27.30
2019-04-22T13:25:17.649Z,27.50
2019-04-22T13:27:46.816Z,27.40
2019-04-22T13:30:16.492Z,27.40
2019-04-22T13:32:44.916Z,27.30
2019-04-22T13:35:13.238Z,27.20
2019-04-22T13:37:41.491Z,26.60
2019-04-22T13:40:10.906Z,26.50
2019-04-22T13:42:40.697Z,26.50
2019-04-22T13:45:09.783Z,26.60
2019-04-22T13:48:00.420Z,26.80
2019-04-22T13:53:26.178Z,26.60
2019-04-22T13:55:44.960Z,26.60
2019-04-22T13:57:58.379Z,26.40
2019-04-22T14:00:18.429Z,26.40
2019-04-22T14:02:52.701Z,26.40
2019-04-22T14:05:26.894Z,26.20
2019-04-22T14:07:57.578Z,26.30
2019-04-22T14:10:26.846Z,26.30
2019-04-22T14:12:56.776Z,26.10
2019-04-22T14:15:25.640Z,26.10
2019-04-22T14:17:54.692Z,26.10
2019-04-22T14:20:25.837Z,26.10
2019-04-22T14:22:54.664Z,26.10
2019-04-22T14:25:24.782Z,26.10
2019-04-22T14:28:01.246Z,26.00
2019-04-22T14:30:24.287Z,25.90
2019-04-22T14:32:54.076Z,25.80
2019-04-22T14:35:23.034Z,25.70
2019-04-22T14:37:52.245Z,25.70
2019-04-22T14:40:22.989Z,25.70
2019-04-22T14:43:05.936Z,25.70
2019-04-22T14:45:58.048Z,25.70
2019-04-22T14:48:22.669Z,25.50
2019-04-22T14:50:46.963Z,25.40
2019-04-22T14:53:19.559Z,25.30
2019-04-22T14:55:26.920Z,25.30
2019-04-22T14:57:55.046Z,25.20
2019-04-22T15:00:29.562Z,25.20
2019-04-22T15:02:59.612Z,25.20
2019-04-22T15:05:28.322Z,25.10
2019-04-22T15:07:57.203Z,25.00
2019-04-22T15:10:28.115Z,25.20
2019-04-22T15:12:58.769Z,25.20
2019-04-22T15:15:35.840Z,25.00
2019-04-22T15:18:21.991Z,25.00
2019-04-22T15:20:58.775Z,24.90
2019-04-22T15:23:28.349Z,24.90
2019-04-22T15:25:57.185Z,24.80
2019-04-22T15:28:25.478Z,24.70
2019-04-22T15:30:55.455Z,24.80
2019-04-22T15:33:25.633Z,24.70
2019-04-22T15:35:55.422Z,24.80
2019-04-22T15:38:24.396Z,24.80
2019-04-22T15:40:54.549Z,24.70
2019-04-22T15:43:27.006Z,24.80
2019-04-22T15:45:53.074Z,24.70
2019-04-22T15:48:21.347Z,24.60
2019-04-22T15:50:50.764Z,24.60
2019-04-22T15:53:20.073Z,24.50
2019-04-22T15:55:48.541Z,24.60
2019-04-22T15:58:17.599Z,24.60
2019-04-22T16:00:57.678Z,24.60
2019-04-22T16:03:16.440Z,24.60
2019-04-22T16:05:46.066Z,24.60
2019-04-22T16:08:15.077Z,24.50
2019-04-22T16:10:43.971Z,24.50
2019-04-22T16:13:20.164Z,24.50
2019-04-22T16:15:42.778Z,24.50
2019-04-22T16:18:13.411Z,24.40
2019-04-22T16:20:41.287Z,24.40
2019-04-22T16:23:13.044Z,24.50
2019-04-22T16:25:45.299Z,24.40
2019-04-22T16:28:15.275Z,24.40
2019-04-22T16:30:45.446Z,24.20
2019-04-22T16:33:15.177Z,24.30
2019-04-22T16:35:44.938Z,24.30
2019-04-22T16:38:14.922Z,24.20
2019-04-22T16:40:43.400Z,24.30
2019-04-22T16:43:13.514Z,24.30
2019-04-22T16:45:43.298Z,24.30
2019-04-22T16:48:11.764Z,24.30
2019-04-22T16:50:42.799Z,24.20
2019-04-22T16:53:10.268Z,24.10
2019-04-22T16:55:39.157Z,24.10
2019-04-22T16:58:07.601Z,24.10
2019-04-22T17:00:36.568Z,24.10
2019-04-22T17:03:18.892Z,24.10
2019-04-22T17:06:05.409Z,24.10
2019-04-22T17:08:34.848Z,24.00
2019-04-22T17:11:04.194Z,23.90
2019-04-22T17:13:34.211Z,23.90
2019-04-22T17:16:02.844Z,23.90
2019-04-22T17:18:33.157Z,23.90
2019-04-22T17:21:04.679Z,23.80
2019-04-22T17:23:31.753Z,23.80
2019-04-22T17:26:00.784Z,23.70
2019-04-22T17:28:29.555Z,23.70
2019-04-22T17:30:57.877Z,23.60
2019-04-22T17:33:26.464Z,23.50
2019-04-22T17:35:55.058Z,23.50
2019-04-22T17:38:30.170Z,23.40
2019-04-22T17:41:09.061Z,23.40
2019-04-22T17:43:53.823Z,23.40
2019-04-22T17:46:10.755Z,23.40
2019-04-22T17:48:57.551Z,23.30
2019-04-22T17:51:34.487Z,23.30
2019-04-22T17:54:02.586Z,23.20
2019-04-22T17:56:33.975Z,23.20
2019-04-22T17:59:02.715Z,23.00
2019-04-22T18:01:29.936Z,23.00
2019-04-22T18:03:47.593Z,23.00
2019-04-22T18:06:28.018Z,23.00
2019-04-22T18:09:02.197Z,22.90
2019-04-22T18:11:39.918Z,22.90
2019-04-22T18:14:16.169Z,22.70
2019-04-22T18:16:34.672Z,22.70
2019-04-22T18:19:01.126Z,22.70
2019-04-22T18:21:28.870Z,22.60
2019-04-22T18:23:52.891Z,22.50
2019-04-22T18:26:26.186Z,22.60
2019-04-22T18:29:00.893Z,22.60
2019-04-22T18:31:26.066Z,22.50
2019-04-22T18:33:54.533Z,22.30
2019-04-22T18:36:29.203Z,22.10
2019-04-22T18:39:04.297Z,22.10
2019-04-22T18:41:30.478Z,22.10
2019-04-22T18:44:06.303Z,22.00
2019-04-22T18:46:31.539Z,22.00
2019-04-22T18:49:03.376Z,22.00
2019-04-22T18:51:40.921Z,21.90
2019-04-22T18:54:11.847Z,21.70
2019-04-22T18:56:42.158Z,21.70
2019-04-22T18:59:07.688Z,21.70
2019-04-22T19:01:23.940Z,21.70
2019-04-22T19:04:01.358Z,21.70
2019-04-22T19:06:45.963Z,21.60
2019-04-22T19:09:15.343Z,21.50
2019-04-22T19:11:51.922Z,21.50
2019-04-22T19:14:37.236Z,21.50
2019-04-22T19:17:07.613Z,21.30
2019-04-22T19:21:43.307Z,21.40
2019-04-22T19:24:09.112Z,21.20
2019-04-22T19:26:58.722Z,21.20
2019-04-22T19:29:17.401Z,21.20
2019-04-22T19:31:45.876Z,21.20
2019-04-22T19:34:16.186Z,21.10
2019-04-22T19:36:46.933Z,21.00
2019-04-22T19:39:10.513Z,20.90
2019-04-22T19:41:49.073Z,20.90
2019-04-22T19:44:16.475Z,20.90
2019-04-22T19:46:52.924Z,20.80
2019-04-22T19:49:24.589Z,20.90
2019-04-22T19:51:52.432Z,20.80
2019-04-22T19:54:14.024Z,20.80
2019-04-22T19:56:38.791Z,20.80
2019-04-22T19:59:09.372Z,20.70
2019-04-22T20:01:48.638Z,20.50
2019-04-22T20:04:28.338Z,20.50
2019-04-22T20:07:11.236Z,20.50
2019-04-22T20:09:46.760Z,20.40
2019-04-22T20:12:11.748Z,20.50
2019-04-22T20:14:46.383Z,20.50
2019-04-22T20:17:08.027Z,20.40
2019-04-22T20:19:51.214Z,20.30
2019-04-22T20:22:12.883Z,20.30
2019-04-22T20:24:28.097Z,20.30
2019-04-22T20:27:13.627Z,20.20
2019-04-22T20:29:42.109Z,20.10
2019-04-22T20:32:12.001Z,20.00
2019-04-22T20:34:44.567Z,20.10
2019-04-22T20:37:15.162Z,20.30
2019-04-22T20:39:44.435Z,20.10
2019-04-22T20:42:23.917Z,19.90
2019-04-22T20:44:50.449Z,19.90
2019-04-22T20:47:09.011Z,19.90
2019-04-22T20:49:41.601Z,19.90
2019-04-22T20:52:27.813Z,19.90
2019-04-22T20:54:40.161Z,19.70
2019-04-22T20:57:09.805Z,19.60
2019-04-22T20:59:42.930Z,19.60
2019-04-22T21:02:07.966Z,19.70
2019-04-22T21:04:32.353Z,19.60
2019-04-22T21:07:09.107Z,19.60
2019-04-22T21:09:41.124Z,19.50
2019-04-22T21:12:05.099Z,19.40
2019-04-22T21:14:44.199Z,19.50
2019-04-22T21:17:13.826Z,19.40
2019-04-22T21:19:49.767Z,19.40
2019-04-22T21:22:16.010Z,19.30
2019-04-22T21:24:42.138Z,19.20
2019-04-22T21:27:13.829Z,19.30
2019-04-22T21:29:40.846Z,19.30
2019-04-22T21:32:15.616Z,19.20
2019-04-22T21:34:54.041Z,19.30
2019-04-22T21:37:20.827Z,19.20
2019-04-22T21:39:40.650Z,19.30
2019-04-22T21:42:14.285Z,19.20
2019-04-22T21:44:38.076Z,18.90
2019-04-22T21:49:54.704Z,18.80
2019-04-22T21:52:18.127Z,18.70
2019-04-22T21:54:47.037Z,18.70
2019-04-22T21:57:35.256Z,18.80
2019-04-22T22:00:03.543Z,18.90
2019-04-22T22:02:31.429Z,18.90
2019-04-22T22:04:54.798Z,18.60
2019-04-22T22:07:16.074Z,18.60
2019-04-22T22:10:02.170Z,18.60
2019-04-22T22:12:36.105Z,18.60
2019-04-22T22:15:04.082Z,18.50
2019-04-22T22:17:30.762Z,18.50
2019-04-22T22:20:01.959Z,18.50
2019-04-22T22:25:04.212Z,18.30
2019-04-22T22:27:34.236Z,18.30
2019-04-22T22:30:18.727Z,18.10
2019-04-22T22:32:35.052Z,18.20
2019-04-22T22:35:02.995Z,18.30
2019-04-22T22:37:21.889Z,18.30
2019-04-22T22:39:51.397Z,18.10
2019-04-22T22:42:19.073Z,18.10
2019-04-22T22:44:47.753Z,18.00
2019-04-22T22:47:34.267Z,17.90
2019-04-22T22:50:05.899Z,17.80
2019-04-22T22:52:53.160Z,17.80
2019-04-22T22:55:04.107Z,17.80
2019-04-22T22:57:35.195Z,17.70
2019-04-22T23:00:02.062Z,17.70
2019-04-22T23:02:34.161Z,17.70
2019-04-22T23:05:05.378Z,17.70
2019-04-22T23:07:37.399Z,17.70
2019-04-22T23:10:00.224Z,17.60
2019-04-22T23:12:40.550Z,17.50
2019-04-22T23:14:59.314Z,17.50
2019-04-22T23:17:16.943Z,17.50
2019-04-22T23:19:46.633Z,17.40
2019-04-22T23:22:17.873Z,17.40
2019-04-22T23:25:17.346Z,17.30
2019-04-22T23:27:40.696Z,17.30
2019-04-22T23:30:19.654Z,17.30
2019-04-22T23:32:58.151Z,17.40
2019-04-22T23:35:33.146Z,17.20
2019-04-22T23:38:01.325Z,17.20
2019-04-22T23:40:38.465Z,17.00
2019-04-22T23:43:09.063Z,17.00
2019-04-22T23:46:01.688Z,17.00
2019-04-22T23:48:22.589Z,17.20
2019-04-22T23:51:03.345Z,17.00
2019-04-22T23:53:57.901Z,17.00
2019-04-22T23:56:04.196Z,17.00
